Tiempo atmosférico en la estación meteorológica de Castellote, Teruel (755 m.)



Fecha
DESCASC
Temp. máxima en grados centígrados (hora)
DESCASC
Temp. mínima en grados centígrados (hora)
DESCASC
Temp. media en grados centígrados
DESCASC
Racha de viento máxima en m/sg (hora)
DESCASC
Velocidad máxima media en intervalos de 10 minutos(hora)
DESCASC
Precipitaciones diarias en mm
DESCASC
Precipitaciones de 00:00 a 06:00 en mm
DESCASC
Precipitaciones de 06:00 a 12:00 en mm
DESCASC
Precipitaciones de 12:00 a 18:00 en mm
DESCASC
Precipitaciones de 18:00 a 24:00 en mm
DESCASC
05-04-2020 16.1 (15:30) 5.7 (07:00) 10.9 7.22 (19:30) 4.17 (19:30) 0 0 0 0 0
04-04-2020 17 (16:20) 3 (07:40) 10 10.56 (14:50) 6.67 (14:50) 0 0 0 0 0
03-04-2020 13.5 (15:10) 3.4 (07:30) 8.5 10.56 (10:10) 5.28 (17:50) 0.2 0.2 0 0 0
02-04-2020 12 (18:00) 6 (00:00) 9 9.44 (23:10) 3.61 (15:20) 2 0 0.6 0.8 0.6
01-04-2020 8.4 (15:10) 3.7 (00:00) 6 4.72 (13:40) 2.5 (15:00) 16.2 1.4 9.4 5.4 0
31-03-2020 3.7 (23:30) -0.4 (00:00) 1.7 5.56 (14:10) 2.5 (14:00) 6.6 2.8 2 1.6 0.2
30-03-2020 7 (00:00) 0.1 (00:00) 3.6 11.39 (02:50) 4.72 (02:50) 1.4 0 0 0 1.4
29-03-2020 17.2 (17:10) 4.2 (00:00) 10.7 16.11 (20:50) 8.33 (20:40) 0 0 0 0 0
28-03-2020 14.2 (15:20) 4.1 (00:00) 9.1 8.33 (12:50) 4.17 (14:20) 0 0 0 0 0
27-03-2020 11.8 (15:50) -0.1 (00:00) 5.9 7.78 (16:00) 4.44 (16:10) 0 0 0 0 0
26-03-2020 9.9 (16:20) 1.9 (00:00) 5.9 20.83 (11:00) 10 (11:00) 0.2 0 0 0.2 0
25-03-2020 9.8 (15:40) 3.6 (00:00) 6.7 6.11 (16:30) 3.33 (03:30) 1 0.2 0.8 0 0
24-03-2020 9.2 (11:20) 5.9 (00:00) 7.5 8.61 (04:50) 4.72 (11:30) 0.6 0.6 0 0 0
23-03-2020 10.6 (13:00) 6.5 (00:00) 8.6 6.67 (15:50) 3.89 (15:50) 5.2 0.4 3.8 1 0
22-03-2020 11.6 (17:10) 5.4 (07:20) 8.5 6.67 (14:40) 4.17 (14:40) 0.6 0 0 0.4 0.2
21-03-2020 15.4 (14:20) 4.5 (00:00) 9.9 7.78 (14:30) 3.61 (14:20) 0 0 0 0 0
20-03-2020 13.1 (10:30) 4 (00:00) 8.6 10.56 (11:30) 5.83 (14:50) 0 0 0 0 0
19-03-2020 16.1 (15:20) 4.4 (00:00) 10.3 7.78 (17:30) 5 (17:30) 0 0 0 0 0
18-03-2020 15.4 (15:00) 5.9 (00:00) 10.6 6.67 (16:10) 3.06 (16:10) 0 0 0 0 0
17-03-2020 12.8 (15:00) 7.7 (00:00) 10.3 8.61 (16:10) 5 (17:30) 25 10 11.6 3.4 0
16-03-2020 11.2 (10:50) 6.6 (00:00) 8.9 9.44 (09:00) 5.83 (03:40) 30.6 1.2 0 6.6 22.8
15-03-2020 19.5 (14:20) 6.6 (00:00) 13 11.67 (14:30) 7.5 (14:30) 2 0 0 0.4 1.6
14-03-2020 18 (13:50) 6.3 (00:00) 12.2 9.17 (14:20) 5.28 (14:20) 0 0 0 0 0
13-03-2020 16.9 (13:40) 9 (07:20) 12.9 7.5 (13:50) 4.17 (20:30) 0 0 0 0 0
12-03-2020 27.3 (13:00) 11.7 (00:00) 19.5 8.33 (14:30) 4.44 (18:10) 0 0 0 0 0
11-03-2020 23.7 (16:30) 9.4 (00:00) 16.6 7.5 (12:10) 3.89 (14:50) 0 0 0 0 0

Gráficas

Temp. máximas Temp. mínimas Temp. medias Precipitaciones Rachas de viento máximas Velocidades máximas media en intervalos de 10 minutos

Datos horarios

Fecha y hora oficial Temperatura (ºC) Velocidad del viento (km/h) Dirección del viento Racha (km/h) Dirección de racha Precipitación (mm) Presión (hPa) Tendencia (hPa) Humedad (%)
2020-04-09 23:00:00 12.6 5 Sur 9 Sur 0 -- -- 61
2020-04-09 22:00:00 13 6 Sudeste 14 Sudeste 0 -- -- 56
2020-04-09 21:00:00 13.5 8 Sudeste 17 Sudeste 0 -- -- 55
2020-04-09 20:00:00 14.7 8 Sudeste 20 Sudeste 0 -- -- 56
2020-04-09 19:00:00 15.9 15 Sur 27 Sudeste 0 -- -- 52
2020-04-09 18:00:00 17.3 8 Sudeste 24 Sur 0 -- -- 50
2020-04-09 17:00:00 19.4 13 Sudeste 26 Este 0 -- -- 44
2020-04-09 16:00:00 19.9 20 Este 30 Este 0 -- -- 41
2020-04-09 15:00:00 20 12 Este 28 Este 0 -- -- 42
2020-04-09 14:00:00 19 8 Este 23 Este 0 -- -- 60
2020-04-09 13:00:00 18.9 5 Nordeste 15 Este 0 -- -- 61
2020-04-09 12:00:00 16.9 5 Nordeste 13 Este 0 -- -- 66
2020-04-09 11:00:00 14.7 7 Este 11 Este 0 -- -- 74
2020-04-09 10:00:00 12.4 5 Este 10 Este 0 -- -- 81
2020-04-09 09:00:00 10.3 5 Este 9 Este 0 -- -- 91
2020-04-09 08:00:00 8.7 2 Este 6 Este 0 -- -- 94
2020-04-09 07:00:00 8.6 4 Este 6 Nordeste 0 -- -- 94
2020-04-09 06:00:00 8.8 2 Este 3 Este 0 -- -- 93
2020-04-09 05:00:00 9 0 Calma 6 Sur 0 -- -- 93
2020-04-09 04:00:00 9.2 0 Calma 6 Sudeste 0 -- -- 91
2020-04-09 03:00:00 9.5 2 Sur 7 Este 0 -- -- 91
2020-04-09 02:00:00 9.9 3 Sur 8 Sur 0 -- -- 89
2020-04-09 01:00:00 10.4 5 Sudoeste 10 Sudoeste 0 -- -- 88
2020-04-09 00:00:00 10.8 5 Este 9 Sudeste 0 -- -- 88
2020-04-08 23:00:00 11.9 5 Sur 8 Sudoeste 0 -- -- 85
2020-04-08 22:00:00 12.6 3 Sur 7 Este 0 -- -- 84
2020-04-08 21:00:00 13.3 3 Sudeste 12 Este 0 -- -- 82
2020-04-08 20:00:00 14.4 4 Este 10 Sudeste 0 -- -- 80
2020-04-08 19:00:00 15.4 4 Sur 12 Sur 0 -- -- 76
2020-04-08 18:00:00 16.2 4 Este 11 Nordeste 0 -- -- 73
2020-04-08 17:00:00 15.9 4 Sudoeste 15 Nordeste 1 -- -- 75
2020-04-08 16:00:00 13.8 3 Sudoeste 18 Este 2.2 -- -- 84
2020-04-08 15:00:00 16.9 9 Este 27 Este 0 -- -- 67
2020-04-08 14:00:00 18.5 6 Sudeste 16 Este 0 -- -- 61
2020-04-08 13:00:00 17 9 Este 19 Este 0 -- -- 67
2020-04-08 12:00:00 15.4 6 Este 15 Este 0 -- -- 72
2020-04-08 11:00:00 14.1 3 Nordeste 9 Nordeste 0 -- -- 77
2020-04-08 10:00:00 11.1 2 Sudoeste 5 Este 0 -- -- 89
2020-04-08 09:00:00 8.9 0 Calma 4 Sur 0 -- -- 94
2020-04-08 08:00:00 8.5 0 Calma 5 Norte 0 -- -- 93
2020-04-08 07:00:00 8.5 0 Calma 5 Este 0 -- -- 92
2020-04-08 06:00:00 8.6 0 Calma 5 Sudeste 0 -- -- 92
2020-04-08 05:00:00 9 3 Este 7 Sur 0 -- -- 88
2020-04-08 04:00:00 8.6 0 Calma 6 Sur 0 -- -- 90
2020-04-08 03:00:00 8.8 2 Oeste 4 Sudoeste 0 -- -- 88
2020-04-08 02:00:00 8.9 3 Este 6 Sudoeste 0 -- -- 87
2020-04-08 01:00:00 9.1 3 Sudeste 8 Este 0 -- -- 84
2020-04-08 00:00:00 9.1 3 Sudoeste 10 Sudeste 0 -- -- 84
2020-04-07 23:00:00 9.4 3 Sudeste 9 Sudeste 0 -- -- 85
2020-04-07 22:00:00 10 4 Sur 11 Sudeste 0 -- -- 82
2020-04-07 21:00:00 10.3 4 Sur 13 Sudoeste 0 -- -- 83
2020-04-07 20:00:00 11.2 4 Sudeste 9 Este 0 -- -- 75
2020-04-07 19:00:00 12.1 5 Sudeste 8 Este 0.4 -- -- 85
2020-04-07 18:00:00 12.4 5 Sudeste 15 Sudeste 0.2 -- -- 71
2020-04-07 17:00:00 13 6 Sudeste 13 Sudeste 0.2 -- -- 77
2020-04-07 16:00:00 12.8 5 Sudeste 18 Sudeste 0.6 -- -- 84
2020-04-07 15:00:00 14.1 9 Sudeste 18 Este 0 -- -- 73
2020-04-07 14:00:00 12.4 8 Este 13 Este 0 -- -- 85
2020-04-07 13:00:00 11.4 2 Este 18 Sudeste 0.2 -- -- 85
2020-04-07 12:00:00 11.4 9 Sur 16 Sur 0.4 -- -- 87
2020-04-07 11:00:00 11.7 3 Sur 6 Sur 0 -- -- 88
2020-04-07 10:00:00 11 6 Sudeste 10 Sur 0 -- -- 91
2020-04-07 09:00:00 10 4 Sur 6 Sur 0 -- -- 93
2020-04-07 08:00:00 9.3 0 Calma 6 Sur 0 -- -- 94
2020-04-07 07:00:00 9.9 0 Calma 6 Sudeste 0.2 -- -- 93
2020-04-07 06:00:00 10.1 2 Sudoeste 8 Oeste 0.2 -- -- 93
2020-04-07 05:00:00 10.4 5 Este 7 Este 0.2 -- -- 93
2020-04-07 04:00:00 10.1 4 Sudoeste 5 Sudoeste 0.2 -- -- 93
2020-04-07 03:00:00 10.7 0 Calma 4 Sudeste 0.6 -- -- 90
2020-04-07 02:00:00 10.5 0 Calma 6 Sudoeste 0.2 -- -- 90
2020-04-07 01:00:00 10.5 3 Sudoeste 5 Sudoeste 0.2 -- -- 89
2020-04-07 00:00:00 10.6 5 Sudoeste 10 Sur 0.6 -- -- 89
2020-04-06 23:00:00 10.6 5 Sudeste 12 Sudeste 0 -- -- 87
2020-04-06 22:00:00 10.9 8 Sur 13 Sur 0 -- -- 85
2020-04-06 21:00:00 11.6 5 Sudeste 12 Sudeste 0 -- -- 81
2020-04-06 20:00:00 12.3 6 Este 15 Este 0 -- -- 78
2020-04-06 19:00:00 13.2 8 Este 15 Sudeste 0 -- -- 74
2020-04-06 18:00:00 13.9 9 Sudeste 21 Sudeste 0 -- -- 72
2020-04-06 17:00:00 15.7 10 Sudeste 21 Sudeste 0 -- -- 64
2020-04-06 16:00:00 18.5 12 Este 23 Este 0 -- -- 54
2020-04-06 15:00:00 18.9 12 Sudeste 27 Este 0 -- -- 51
2020-04-06 14:00:00 18.6 7 Este 26 Este 0 -- -- 53
2020-04-06 13:00:00 18.8 7 Nordeste 20 Este 0 -- -- 53
2020-04-06 12:00:00 17.2 6 Nordeste 17 Norte 0 -- -- 58
2020-04-06 11:00:00 14.4 4 Sudeste 8 Norte 0 -- -- 63
2020-04-06 10:00:00 11.9 5 Sur 11 Sur 0 -- -- 72
2020-04-06 09:00:00 9.6 3 Sur 9 Sudoeste 0 -- -- 79
2020-04-06 08:00:00 9 3 Sur 10 Oeste 0 -- -- 80
2020-04-06 07:00:00 8.2 2 Sur 6 Sur 0 -- -- 84
2020-04-06 06:00:00 8.6 0 Calma 8 Sur 0 -- -- 81
2020-04-06 05:00:00 8.5 5 Sudoeste 10 Oeste 0 -- -- 83
2020-04-06 04:00:00 8.5 3 Sur 10 Sur 0 -- -- 83
2020-04-06 03:00:00 8.2 5 Sudoeste 11 Sur 0 -- -- 85
2020-04-06 02:00:00 9.1 5 Sur 16 Sudoeste 0 -- -- 81
2020-04-06 01:00:00 8.5 8 Sudoeste 13 Sudoeste 0 -- -- 85
2020-04-06 00:00:00 9 4 Sudoeste 10 Sur 0 -- -- 83
2020-04-05 23:00:00 9.5 5 Sudoeste 8 Sudoeste 0 -- -- 82
2020-04-05 22:00:00 9.8 6 Sudeste 17 Este 0 -- -- 80
2020-04-05 21:00:00 10.7 11 Este 20 Este 0 -- -- 76
2020-04-05 20:00:00 12.5 12 Este 26 Este 0 -- -- 70
2020-04-05 19:00:00 14.7 10 Este 22 Sudeste 0 -- -- 62
2020-04-05 18:00:00 15.8 12 Este 21 Sudeste 0 -- -- 57
2020-04-05 17:00:00 14.2 8 Este 21 Sudeste 0 -- -- 59
2020-04-05 16:00:00 14.7 9 Sudeste 23 Sudeste 0 -- -- 52
2020-04-05 15:00:00 15 15 Este 22 Nordeste 0 -- -- 49
2020-04-05 14:00:00 13.8 9 Sudeste 19 Sudeste 0 -- -- 51
2020-04-05 13:00:00 12.7 7 Sudeste 16 Este 0 -- -- 53
2020-04-05 12:00:00 11.4 9 Sur 15 Sur 0 -- -- 55
2020-04-05 11:00:00 10.2 5 Sur 11 Sur 0 -- -- 56
2020-04-05 10:00:00 8.4 3 Sudeste 12 Sur 0 -- -- 59
2020-04-05 09:00:00 7.2 6 Sur 12 Sur 0 -- -- 60
2020-04-05 08:00:00 6.3 6 Sur 12 Sur 0 -- -- 63
2020-04-05 07:00:00 5.7 4 Sudoeste 9 Sur 0 -- -- 67
2020-04-05 06:00:00 6.2 8 Sur 15 Sudeste 0 -- -- 68
2020-04-05 05:00:00 6.2 3 Sudeste 14 Sudeste 0 -- -- 69
2020-04-05 04:00:00 6.7 5 Sudeste 13 Sur 0 -- -- 64
2020-04-05 03:00:00 6.4 6 Sudoeste 10 Sudoeste 0 -- -- 67
2020-04-05 02:00:00 6.6 5 Sudoeste 9 Sur 0 -- -- 70
2020-04-05 01:00:00 7.5 7 Sudeste 23 Sudeste 0 -- -- 68
2020-04-05 00:00:00 7.9 8 Sudeste 23 Sur 0 -- -- 69
2020-04-04 23:00:00 8.3 12 Sur 24 Sur 0 -- -- 69
2020-04-04 22:00:00 9.2 10 Sudeste 24 Sur 0 -- -- 65
2020-04-04 21:00:00 10.6 12 Sudeste 29 Sur 0 -- -- 63
2020-04-04 20:00:00 12.5 10 Sudeste 30 Sudeste 0 -- -- 57
2020-04-04 19:00:00 14.6 14 Sur 37 Este 0 -- -- 53
2020-04-04 18:00:00 15.9 15 Sudeste 31 Sudeste 0 -- -- 50
2020-04-04 17:00:00 16.5 16 Sudeste 35 Sudeste 0 -- -- 48
2020-04-04 16:00:00 16.9 16 Sudeste 38 Sudeste 0 -- -- 46
2020-04-04 15:00:00 16.9 17 Este 38 Este 0 -- -- 47
2020-04-04 14:00:00 16.4 18 Este 35 Este 0 -- -- 49
2020-04-04 13:00:00 15.8 15 Este 31 Nordeste 0 -- -- 52
2020-04-04 12:00:00 14.5 10 Este 19 Sudeste 0 -- -- 56
2020-04-04 11:00:00 11.7 3 Sudoeste 7 Sur 0 -- -- 58
2020-04-04 10:00:00 8 0 Calma 10 Este 0 -- -- 69
2020-04-04 09:00:00 5.1 6 Este 8 Este 0 -- -- 79
2020-04-04 08:00:00 3.1 6 Este 10 Este 0 -- -- 84
2020-04-04 07:00:00 3.2 6 Este 8 Este 0 -- -- 86
2020-04-04 06:00:00 3.9 4 Sudeste 10 Este 0 -- -- 84
2020-04-04 05:00:00 4.1 6 Este 10 Este 0 -- -- 85
2020-04-04 04:00:00 4.8 5 Este 9 Este 0 -- -- 84
2020-04-04 03:00:00 5.3 5 Este 10 Este 0 -- -- 83
2020-04-04 02:00:00 5.6 3 Este 8 Este 0 -- -- 84
2020-04-04 01:00:00 6.3 3 Sudeste 8 Este 0 -- -- 82
2020-04-04 00:00:00 6.5 3 Oeste 6 Sudeste 0 -- -- 81
2020-04-03 23:00:00 7.7 0 Calma 6 Sur 0 -- -- 75
2020-04-03 22:00:00 9.1 2 Oeste 5 Oeste 0 -- -- 67
2020-04-03 21:00:00 9.5 3 Noroeste 8 Norte 0 -- -- 66
2020-04-03 20:00:00 10.9 4 Nordeste 18 Este 0 -- -- 60
2020-04-03 19:00:00 11.8 12 Este 37 Este 0 -- -- 58
2020-04-03 18:00:00 12.1 15 Este 31 Este 0 -- -- 61
2020-04-03 17:00:00 12.1 15 Este 27 Este 0 -- -- 57
2020-04-03 16:00:00 13.2 4 Sur 27 Oeste 0 -- -- 53
2020-04-03 15:00:00 13 8 Sudeste 20 Norte 0 -- -- 50
2020-04-03 14:00:00 11.8 9 Sudeste 18 Oeste 0 -- -- 52
2020-04-03 13:00:00 10.1 4 Sudoeste 25 Oeste 0 -- -- 55
2020-04-03 12:00:00 8.5 10 Oeste 27 Oeste 0 -- -- 59
2020-04-03 11:00:00 7 12 Oeste 38 Oeste 0 -- -- 61
2020-04-03 10:00:00 5.3 14 Oeste 35 Oeste 0 -- -- 64
2020-04-03 09:00:00 4.1 13 Oeste 26 Oeste 0 -- -- 67
2020-04-03 08:00:00 3.4 3 Oeste 24 Oeste 0 -- -- 67
2020-04-03 07:00:00 3.7 8 Oeste 24 Noroeste 0 -- -- 68
2020-04-03 06:00:00 4.3 11 Oeste 34 Oeste 0 -- -- 68
2020-04-03 05:00:00 4.5 10 Noroeste 30 Oeste 0 -- -- 69
2020-04-03 04:00:00 5.1 5 Oeste 29 Oeste 0 -- -- 71
2020-04-03 03:00:00 5.7 5 Noroeste 19 Oeste 0 -- -- 75
2020-04-03 02:00:00 6.1 5 Sur 34 Noroeste 0 -- -- 77
2020-04-03 01:00:00 6.9 13 Oeste 30 Oeste 0.2 -- -- 74
2020-04-03 00:00:00 7.7 12 Noroeste 34 Oeste 0.6 -- -- 80
2020-04-02 23:00:00 8.6 6 Noroeste 29 Oeste 0 -- -- 85
2020-04-02 22:00:00 8.2 0 Calma 4 Oeste 0 -- -- 91
2020-04-02 21:00:00 8.6 3 Oeste 5 Oeste 0 -- -- 91
2020-04-02 20:00:00 9 2 Este 8 Este 0 -- -- 89
2020-04-02 19:00:00 9.3 5 Este 24 Norte 0 -- -- 87
2020-04-02 18:00:00 12 3 Oeste 26 Oeste 0 -- -- 71
2020-04-02 17:00:00 9 9 Noroeste 19 Nordeste 0.4 -- -- 86
2020-04-02 16:00:00 10.1 4 Sudoeste 31 Oeste 0 -- -- 82
2020-04-02 15:00:00 7.9 4 Sur 18 Oeste 0 -- -- 92
2020-04-02 14:00:00 7.7 4 Sudoeste 26 Este 0 -- -- 94
2020-04-02 13:00:00 7.3 3 Este 20 Este 0.4 -- -- 95
2020-04-02 12:00:00 7.5 0 Calma 11 Norte 0.6 -- -- 96
2020-04-02 11:00:00 6.9 3 Este 7 Este 0 -- -- 97
2020-04-02 10:00:00 6.5 0 Calma 9 Oeste 0 -- -- 97
2020-04-02 09:00:00 6.3 0 Calma 6 Sur 0 -- -- 97
2020-04-02 08:00:00 6.1 0 Calma 4 Este 0 -- -- 97
2020-04-02 07:00:00 6.1 0 Calma 6 Oeste 0 -- -- 96
2020-04-02 06:00:00 6.1 3 Oeste 6 Oeste 0 -- -- 96
2020-04-02 05:00:00 6.2 0 Calma 3 Sudoeste 0 -- -- 96
2020-04-02 04:00:00 6.3 0 Calma 9 Norte 0 -- -- 95
2020-04-02 03:00:00 6.2 3 Norte 4 Nordeste 0 -- -- 96
2020-04-02 02:00:00 6.3 0 Calma 4 Sudoeste 0 -- -- 96
2020-04-02 01:00:00 6.4 0 Calma 4 Noroeste 0 -- -- 96
2020-04-02 00:00:00 6.4 2 Sudoeste 6 Noroeste 0 -- -- 95
2020-04-01 23:00:00 6.5 2 Norte 9 Norte 0 -- -- 95
2020-04-01 22:00:00 6.5 2 Oeste 10 Nordeste 0 -- -- 94
2020-04-01 21:00:00 6.6 5 Nordeste 12 Nordeste 0 -- -- 93
2020-04-01 20:00:00 7.1 3 Nordeste 12 Nordeste 0 -- -- 92
2020-04-01 19:00:00 7.5 3 Norte 15 Nordeste 0 -- -- 90
2020-04-01 18:00:00 7.8 4 Nordeste 14 Norte 0 -- -- 91
2020-04-01 17:00:00 7.5 4 Este 17 Este 0 -- -- 90
2020-04-01 16:00:00 8.1 4 Nordeste 14 Noroeste 0 -- -- 87
2020-04-01 15:00:00 8.2 9 Noroeste 16 Noroeste 0 -- -- 87
2020-04-01 14:00:00 6.9 9 Oeste 17 Oeste 2.4 -- -- 96
2020-04-01 13:00:00 6.1 7 Sudoeste 17 Sur 3 -- -- 97
2020-04-01 12:00:00 5.8 4 Norte 14 Noroeste 3.6 -- -- 97
2020-04-01 11:00:00 5.6 2 Norte 9 Norte 1.4 -- -- 98
2020-04-01 10:00:00 5.1 0 Calma 3 Noroeste 0.6 -- -- 98
2020-04-01 09:00:00 5 0 Calma 12 Norte 0.8 -- -- 97
2020-04-01 08:00:00 4.5 2 Sudoeste 6 Este 0.4 -- -- 97
2020-04-01 07:00:00 4.6 0 Calma 9 Norte 2.6 -- -- 97
2020-04-01 06:00:00 4.6 3 Noroeste 11 Norte 1.4 -- -- 98
2020-04-01 05:00:00 4.3 0 Calma 9 Norte 0 -- -- 97
2020-04-01 04:00:00 4.5 4 Norte 10 Norte 0 -- -- 97
2020-04-01 03:00:00 4 0 Calma 4 Sudoeste 0 -- -- 97
2020-04-01 02:00:00 4.1 0 Calma 4 Nordeste 0 -- -- 97
2020-04-01 01:00:00 3.8 0 Calma 3 Sur 0 -- -- 97
2020-04-01 00:00:00 3.7 0 Calma 5 Oeste 0.2 -- -- 97
2020-03-31 23:00:00 3.6 0 Calma 2 Este 0 -- -- 97
2020-03-31 22:00:00 3.3 0 Calma 2 Sur 0 -- -- 96
2020-03-31 21:00:00 3.3 0 Calma 5 Norte 0 -- -- 96
2020-03-31 20:00:00 3.1 0 Calma 4 Nordeste 0 -- -- 96
2020-03-31 19:00:00 2.9 0 Calma 3 Sur 0 -- -- 96
2020-03-31 18:00:00 2.7 0 Calma 5 Este 0.2 -- -- 96
2020-03-31 17:00:00 2.5 0 Calma 4 Sudeste 0 -- -- 96
2020-03-31 16:00:00 2.2 2 Sur 6 Sur 0.6 -- -- 95
2020-03-31 15:00:00 2 2 Norte 20 Nordeste 0.2 -- -- 95
2020-03-31 14:00:00 1.6 9 Nordeste 17 Este 0.2 -- -- 95
2020-03-31 13:00:00 1.8 0 Calma 3 Sur 0.4 -- -- 95
2020-03-31 12:00:00 1 0 Calma 2 Nordeste 0.4 -- -- 96
2020-03-31 11:00:00 0.5 0 Calma 0 Calma 1 -- -- 96
2020-03-31 10:00:00 0 0 Calma -- -- 0.2 -- -- 96
2020-03-31 09:00:00 -0.3 0 Calma -- -- 0.2 -- -- 96
2020-03-31 08:00:00 -0.2 0 Calma -- -- 0 -- -- 96
2020-03-31 07:00:00 -0.2 0 Calma -- -- 0.2 -- -- 96
2020-03-31 06:00:00 -0.4 0 Calma -- -- 0 -- -- 95
2020-03-31 05:00:00 -0.4 0 Calma -- -- 0.8 -- -- 95
2020-03-31 04:00:00 -0.3 0 Calma -- -- 0.8 -- -- 95
2020-03-31 03:00:00 -0.2 0 Calma -- -- 0.4 -- -- 95
2020-03-31 02:00:00 -0.1 0 Calma -- -- 0.6 -- -- 94
2020-03-31 01:00:00 0 0 Calma 0 Calma 0.2 -- -- 94
2020-03-31 00:00:00 0.1 0 Calma 2 Sudeste 0.6 -- -- 93
2020-03-30 23:00:00 0.3 0 Calma 6 Noroeste 0.6 -- -- 91
2020-03-30 22:00:00 0.9 3 Noroeste 13 Oeste 0.2 -- -- 87
2020-03-30 21:00:00 1.9 9 Oeste 24 Oeste 0 -- -- 75
2020-03-30 20:00:00 3.6 3 Sudoeste 17 Oeste 0 -- -- 59
2020-03-30 19:00:00 3.6 7 Noroeste 23 Oeste 0 -- -- 55
2020-03-30 18:00:00 4 15 Noroeste 28 Oeste 0 -- -- 52
2020-03-30 17:00:00 4.1 5 Sudoeste 15 Noroeste 0 -- -- 59
2020-03-30 16:00:00 3.7 10 Noroeste 30 Noroeste 0 -- -- 58
2020-03-30 15:00:00 3.4 5 Oeste 26 Oeste 0 -- -- 74
2020-03-30 14:00:00 2.5 9 Oeste 29 Oeste 0 -- -- 70
2020-03-30 13:00:00 1.5 10 Oeste 24 Sudoeste 0 -- -- 78
2020-03-30 12:00:00 1.3 3 Norte 28 Norte 0 -- -- 78
2020-03-30 11:00:00 1.1 13 Noroeste 28 Norte 0 -- -- 79
2020-03-30 10:00:00 1.8 13 Oeste 30 Oeste 0 -- -- 74
2020-03-30 09:00:00 2.2 9 Noroeste 32 Sudoeste 0 -- -- 73
2020-03-30 08:00:00 3.1 4 Sudoeste 32 Sudoeste 0 -- -- 69
2020-03-30 07:00:00 4.2 12 Noroeste 28 Oeste 0 -- -- 69
2020-03-30 06:00:00 4.5 14 Oeste 35 Oeste 0 -- -- 75
2020-03-30 05:00:00 5.5 5 Oeste 16 Noroeste 0 -- -- 77
2020-03-30 04:00:00 5.7 9 Oeste 30 Sur 0 -- -- 75
2020-03-30 03:00:00 5.9 10 Oeste 41 Oeste 0 -- -- 73
2020-03-30 02:00:00 6.3 6 Oeste 24 Sudeste 0 -- -- 71
2020-03-30 01:00:00 6.6 9 Oeste 33 Noroeste 0 -- -- 70
2020-03-30 00:00:00 7 8 Sudoeste 35 Noroeste 0 -- -- 69
2020-03-29 23:00:00 7.5 7 Sudoeste 51 Noroeste 0 -- -- 69
2020-03-29 22:00:00 8.7 22 Oeste 56 Oeste 0 -- -- 65
2020-03-29 21:00:00 10.1 25 Oeste 58 Noroeste 0 -- -- 56
2020-03-29 20:00:00 12.9 21 Oeste 43 Noroeste 0 -- -- 43
2020-03-29 19:00:00 15.8 13 Noroeste 36 Oeste 0 -- -- 34
2020-03-29 18:00:00 16.5 10 Sudeste 28 Nordeste 0 -- -- 31
2020-03-29 17:00:00 16.8 11 Sudoeste 46 Oeste 0 -- -- 32
2020-03-29 16:00:00 16.8 19 Noroeste 51 Oeste 0 -- -- 32
2020-03-29 15:00:00 16.6 20 Oeste 41 Oeste 0 -- -- 39
2020-03-29 14:00:00 15.7 15 Oeste 36 Noroeste 0 -- -- 42
2020-03-29 13:00:00 14.6 9 Este 22 Este 0 -- -- 49
2020-03-29 12:00:00 12.8 6 Este 15 Este 0 -- -- 53
2020-03-29 11:00:00 10.5 5 Este 9 Este 0 -- -- 56
2020-03-29 10:00:00 7.9 5 Este 9 Este 0 -- -- 64
2020-03-29 09:00:00 5.4 3 Sudeste 9 Nordeste 0 -- -- 70
2020-03-29 08:00:00 4.5 6 Este 7 Este 0 -- -- 73
2020-03-29 07:00:00 4.6 0 Calma 7 Este 0 -- -- 73
2020-03-29 06:00:00 4.6 5 Este 11 Este 0 -- -- 75
2020-03-29 05:00:00 4.6 6 Este 10 Nordeste 0 -- -- 76
2020-03-29 03:00:00 5.4 6 Este 9 Este 0 -- -- 76
2020-03-29 01:00:00 5.7 6 Este 12 Este 0 -- -- 76
2020-03-29 00:00:00 6.2 4 Este 6 Este 0 -- -- 75
2020-03-28 23:00:00 6.7 4 Este 6 Sudeste 0 -- -- 74
2020-03-28 22:00:00 8.2 2 Este 5 Sudeste 0 -- -- 68
2020-03-28 21:00:00 9.3 0 Calma 9 Noroeste 0 -- -- 61
2020-03-28 20:00:00 10 6 Noroeste 9 Nordeste 0 -- -- 58
2020-03-28 19:00:00 11.1 4 Este 10 Nordeste 0 -- -- 54
2020-03-28 18:00:00 11.8 4 Este 15 Este 0 -- -- 52
2020-03-28 17:00:00 13.1 3 Oeste 19 Este 0 -- -- 45
2020-03-28 16:00:00 13.3 7 Sudeste 24 Este 0 -- -- 45
2020-03-28 15:00:00 13.7 5 Norte 28 Este 0 -- -- 44
2020-03-28 14:00:00 13.6 12 Sudeste 30 Este 0 -- -- 47
2020-03-28 13:00:00 12.9 13 Este 30 Este 0 -- -- 47
2020-03-28 12:00:00 12.4 7 Este 18 Este 0 -- -- 53
2020-03-28 11:00:00 10.1 4 Sudoeste 8 Sudoeste 0 -- -- 63
2020-03-28 10:00:00 7.3 2 Sudeste 6 Sudeste 0 -- -- 73
2020-03-28 09:00:00 5.8 0 Calma 4 Este 0 -- -- 78
2020-03-28 08:00:00 5.1 0 Calma 3 Este 0 -- -- 78
2020-03-28 07:00:00 4.4 2 Este 5 Este 0 -- -- 80
2020-03-28 06:00:00 4.5 0 Calma 6 Este 0 -- -- 79
2020-03-28 05:00:00 4.8 3 Oeste 5 Sudeste 0 -- -- 77
2020-03-28 04:00:00 4.7 3 Sudoeste 5 Oeste 0 -- -- 80
2020-03-28 03:00:00 4.5 4 Norte 10 Nordeste 0 -- -- 80
2020-03-28 02:00:00 4.1 4 Nordeste 5 Este 0 -- -- 81
2020-03-28 01:00:00 4.4 2 Sudeste 8 Este 0 -- -- 79
2020-03-28 00:00:00 5 3 Sudeste 4 Este 0 -- -- 75
2020-03-27 23:00:00 6.1 0 Calma 4 Sudeste 0 -- -- 71
2020-03-27 22:00:00 6.6 0 Calma 7 Norte 0 -- -- 68
2020-03-27 21:00:00 7 3 Norte 15 Nordeste 0 -- -- 65
2020-03-27 20:00:00 7.6 7 Este 18 Nordeste 0 -- -- 63
2020-03-27 19:00:00 9.2 7 Nordeste 15 Este 0 -- -- 55
2020-03-27 18:00:00 10.6 8 Este 21 Este 0 -- -- 52
2020-03-27 17:00:00 11 6 Sudeste 26 Este 0 -- -- 51
2020-03-27 16:00:00 11.7 12 Este 28 Este 0 -- -- 49
2020-03-27 15:00:00 11 5 Sudoeste 19 Este 0 -- -- 49
2020-03-27 14:00:00 10 6 Este 15 Sur 0 -- -- 49
2020-03-27 13:00:00 9.2 4 Sudoeste 15 Este 0 -- -- 58
2020-03-27 12:00:00 7.4 5 Este 14 Este 0 -- -- 66
2020-03-27 11:00:00 5.8 5 Este 13 Este 0 -- -- 73
2020-03-27 10:00:00 1.6 0 Calma 12 Este 0 -- -- 88
2020-03-27 09:00:00 0.8 2 Este 12 Este 0 -- -- 91
2020-03-27 08:00:00 0.8 3 Nordeste 9 Norte 0 -- -- 88
2020-03-27 07:00:00 0.2 0 Calma 20 Noroeste 0 -- -- 90
2020-03-27 06:00:00 -0.1 6 Este 13 Este 0 -- -- 89
2020-03-27 05:00:00 0.1 0 Calma 12 Norte 0 -- -- 86
2020-03-27 04:00:00 0.3 0 Calma 9 Oeste 0 -- -- 87
2020-03-27 03:00:00 1.1 4 Oeste 6 Oeste 0 -- -- 86
2020-03-27 02:00:00 1.4 0 Calma 4 Noroeste 0 -- -- 88
2020-03-27 01:00:00 1.6 3 Sur 5 Sur 0 -- -- 87
2020-03-27 00:00:00 1.9 2 Sudoeste 6 Este 0 -- -- 87
2020-03-26 23:00:00 2.4 4 Oeste 12 Norte 0 -- -- 84
2020-03-26 22:00:00 3.5 3 Norte 6 Norte 0 -- -- 74
2020-03-26 21:00:00 3.7 5 Norte 13 Norte 0 -- -- 77
2020-03-26 20:00:00 4.2 5 Norte 16 Norte 0 -- -- 76
2020-03-26 19:00:00 5.6 7 Nordeste 32 Noroeste 0 -- -- 70
2020-03-26 18:00:00 9.4 15 Oeste 57 Oeste 0 -- -- 36
2020-03-26 17:00:00 9.5 18 Noroeste 37 Noroeste 0 -- -- 37
2020-03-26 16:00:00 9.8 14 Noroeste 54 Noroeste 0 -- -- 41
2020-03-26 15:00:00 7 27 Noroeste 61 Noroeste 0 -- -- 53
2020-03-26 14:00:00 6.2 22 Oeste 53 Noroeste 0 -- -- 59
2020-03-26 13:00:00 6.6 34 Noroeste 68 Oeste 0.2 -- -- 58
2020-03-26 12:00:00 6.7 32 Oeste 69 Oeste 0 -- -- 54
2020-03-26 11:00:00 6.4 36 Oeste 75 Noroeste 0 -- -- 58
2020-03-26 10:00:00 6.6 33 Noroeste 68 Noroeste 0 -- -- 62
2020-03-26 09:00:00 5.7 21 Oeste 52 Oeste 0 -- -- 73
2020-03-26 08:00:00 4.4 16 Oeste 37 Oeste 0 -- -- 78
2020-03-26 07:00:00 2.7 4 Sudoeste 12 Sudoeste 0 -- -- 78
2020-03-26 06:00:00 2.2 5 Sudeste 31 Oeste 0 -- -- 77
2020-03-26 05:00:00 3.2 10 Noroeste 33 Oeste 0 -- -- 79
2020-03-26 04:00:00 4.6 7 Noroeste 18 Noroeste 0 -- -- 84
2020-03-26 03:00:00 3 0 Calma 5 Nordeste 0 -- -- 93
2020-03-26 02:00:00 3 0 Calma 7 Noroeste 0 -- -- 93
2020-03-26 01:00:00 3.4 0 Calma 14 Norte 0 -- -- 91
2020-03-26 00:00:00 3.7 3 Norte 8 Noroeste 0 -- -- 91
2020-03-25 23:00:00 3.9 0 Calma 3 Sudoeste 0 -- -- 90
2020-03-25 22:00:00 4.5 2 Sur 3 Sur 0 -- -- 87
2020-03-25 21:00:00 5.1 3 Sudeste -- -- 0 -- -- 84
2020-03-25 20:00:00 5.6 0 Calma 14 Nordeste 0 -- -- 83
2020-03-25 19:00:00 6.7 8 Nordeste 17 Nordeste 0 -- -- 78
2020-03-25 18:00:00 7.7 7 Este 15 Este 0 -- -- 75
2020-03-25 17:00:00 8.6 10 Este 22 Este 0 -- -- 72
2020-03-25 16:00:00 9.3 6 Este 16 Sudeste 0 -- -- 68
2020-03-25 15:00:00 8.2 4 Este 12 Este 0 -- -- 73
2020-03-25 14:00:00 7.1 4 Este 10 Este 0 -- -- 78
2020-03-25 13:00:00 6.5 4 Este 13 Sudeste 0 -- -- 78
2020-03-25 12:00:00 5.6 9 Este 14 Nordeste 0 -- -- 86
2020-03-25 11:00:00 5.3 5 Este 10 Este 0.6 -- -- 90
2020-03-25 10:00:00 4.6 4 Sudeste 10 Sur 0 -- -- 88
2020-03-25 09:00:00 4.3 5 Sur 13 Sur 0 -- -- 88
2020-03-25 08:00:00 4.3 5 Sur 13 Este 0.2 -- -- 88
2020-03-25 07:00:00 4.8 2 Sudeste 10 Sur 0 -- -- 84
2020-03-25 06:00:00 4.8 6 Sur 12 Sur 0 -- -- 85
2020-03-25 05:00:00 5.1 7 Sur 17 Sudeste 0.2 -- -- 84
2020-03-25 04:00:00 5.6 11 Sudeste 22 Sur 0 -- -- 81
2020-03-25 03:00:00 5.7 8 Sur 15 Sur 0 -- -- 83
2020-03-25 02:00:00 5.8 5 Sudeste 13 Sudeste 0 -- -- 82
2020-03-25 01:00:00 6 5 Sur 21 Este 0 -- -- 82
2020-03-25 00:00:00 6.2 4 Sudeste 15 Sudoeste 0 -- -- 81
2020-03-24 23:00:00 6 5 Sudoeste 20 Sur 0 -- -- 81
2020-03-24 22:00:00 5.9 10 Sur 19 Sur 0 -- -- 81
2020-03-24 21:00:00 6.3 6 Sur 13 Sur 0 -- -- 82
2020-03-24 20:00:00 6.7 4 Sur 10 Sur 0 -- -- 80
2020-03-24 19:00:00 8.2 5 Sur 11 Sudoeste 0 -- -- 74
2020-03-24 18:00:00 8.4 6 Sur 15 Sudoeste 0 -- -- 73
2020-03-24 17:00:00 8.5 5 Sur 18 Este 0 -- -- 75
2020-03-24 16:00:00 8.2 6 Este 22 Este 0 -- -- 77
2020-03-24 15:00:00 8.6 11 Este 31 Este 0 -- -- 75
2020-03-24 14:00:00 9 7 Sudeste 20 Este 0 -- -- 75
2020-03-24 13:00:00 8.5 6 Sudeste 19 Este 0 -- -- 78
2020-03-24 12:00:00 9.1 12 Este 30 Este 0 -- -- 73
2020-03-24 11:00:00 8.1 14 Este 25 Nordeste 0 -- -- 80
2020-03-24 10:00:00 8.3 13 Este 25 Nordeste 0 -- -- 87
2020-03-24 09:00:00 7.9 6 Este 18 Este 0 -- -- 91
2020-03-24 08:00:00 7.3 5 Nordeste 14 Nordeste 0 -- -- 92
2020-03-24 07:00:00 7.3 5 Nordeste 17 Nordeste 0 -- -- 92
2020-03-24 06:00:00 7.4 8 Nordeste 28 Nordeste 0 -- -- 92
2020-03-24 05:00:00 7.5 15 Nordeste 31 Este 0.2 -- -- 94
2020-03-24 04:00:00 7.6 8 Nordeste 13 Nordeste 0.4 -- -- 94
2020-03-24 03:00:00 7.6 0 Calma 15 Norte 0 -- -- 93
2020-03-24 02:00:00 7.8 4 Nordeste 16 Nordeste 0 -- -- 93
2020-03-24 01:00:00 7.9 6 Nordeste 17 Este 0 -- -- 92
2020-03-24 00:00:00 8.1 4 Nordeste 13 Nordeste 0 -- -- 91
2020-03-23 23:00:00 8.5 2 Noroeste 10 Nordeste 0 -- -- 89
2020-03-23 22:00:00 8.8 3 Este 13 Este 0 -- -- 90
2020-03-23 21:00:00 8.9 3 Este 18 Nordeste 0 -- -- 89
2020-03-23 20:00:00 9.2 4 Nordeste 8 Este 0 -- -- 87
2020-03-23 19:00:00 9.5 0 Calma 9 Noroeste 0 -- -- 86
2020-03-23 18:00:00 9.7 4 Este 12 Este 0.2 -- -- 81
2020-03-23 17:00:00 9.5 7 Este 22 Este 0.2 -- -- 81
2020-03-23 16:00:00 9.5 14 Nordeste 24 Este 0.4 -- -- 90
2020-03-23 15:00:00 9.8 5 Nordeste 22 Este 0.2 -- -- 91
2020-03-23 14:00:00 10.6 5 Norte 12 Norte 0 -- -- 85
2020-03-23 13:00:00 10.6 3 Nordeste 11 Este 0 -- -- 86
2020-03-23 12:00:00 8.7 3 Este 17 Nordeste 0 -- -- 90
2020-03-23 11:00:00 8.4 4 Nordeste 12 Nordeste 0.4 -- -- 91
2020-03-23 10:00:00 8 2 Sudeste 10 Noroeste 0.4 -- -- 93
2020-03-23 09:00:00 7.1 3 Este 9 Oeste 2.2 -- -- 94
2020-03-23 08:00:00 6.5 5 Oeste 8 Este 0.8 -- -- 94
2020-03-23 07:00:00 6.8 4 Norte 15 Este 0 -- -- 92
2020-03-23 06:00:00 6.9 3 Norte 11 Norte 0 -- -- 93
2020-03-23 05:00:00 6.9 5 Norte 11 Noroeste 0 -- -- 91
2020-03-23 04:00:00 7.1 2 Norte 5 Este 0 -- -- 91
2020-03-23 03:00:00 7.4 0 Calma 6 Sudoeste 0 -- -- 88
2020-03-23 02:00:00 7.7 4 Sudoeste 9 Sudoeste 0 -- -- 87
2020-03-23 01:00:00 7.6 4 Sudoeste 7 Sur 0.4 -- -- 87
2020-03-23 00:00:00 8 0 Calma 8 Sur 0 -- -- 81
2020-03-22 23:00:00 8.1 3 Sudeste 12 Sur 0 -- -- 80
2020-03-22 22:00:00 8.3 4 Sudeste 15 Sudeste 0 -- -- 80
2020-03-22 21:00:00 8.2 6 Sur 12 Sur 0 -- -- 83
2020-03-22 20:00:00 8.9 4 Sudeste 9 Nordeste 0.2 -- -- 89
2020-03-22 19:00:00 9.2 0 Calma 22 Este 0 -- -- 88
2020-03-22 18:00:00 9.9 7 Nordeste 18 Nordeste 0.4 -- -- 83
2020-03-22 17:00:00 10.9 3 Noroeste 13 Noroeste 0 -- -- 75
2020-03-22 16:00:00 9.7 5 Nordeste 19 Este 0 -- -- 85
2020-03-22 15:00:00 9.4 9 Este 24 Nordeste 0 -- -- 82
2020-03-22 14:00:00 10 8 Este 18 Este 0 -- -- 79
2020-03-22 13:00:00 8.7 8 Nordeste 15 Nordeste 0 -- -- 78
2020-03-22 12:00:00 8.6 7 Norte 18 Nordeste 0 -- -- 75
2020-03-22 11:00:00 10.2 5 Norte 13 Norte 0 -- -- 73
2020-03-22 10:00:00 9.2 2 Sudeste 5 Sur 0 -- -- 80
2020-03-22 09:00:00 7.1 0 Calma 5 Nordeste 0 -- -- 90
2020-03-22 08:00:00 6.1 0 Calma 5 Oeste 0 -- -- 92
2020-03-22 07:00:00 5.7 0 Calma 6 Nordeste 0 -- -- 90
2020-03-22 06:00:00 6.5 0 Calma 4 Nordeste 0 -- -- 88
2020-03-22 05:00:00 6.7 2 Este 6 Oeste 0 -- -- 87
2020-03-22 04:00:00 6.5 5 Oeste 8 Sudoeste 0 -- -- 89
2020-03-22 03:00:00 6.9 0 Calma 3 Este 0 -- -- 88
2020-03-22 02:00:00 7.6 0 Calma 4 Sudeste 0 -- -- 85
2020-03-22 01:00:00 8.1 3 Sudoeste 5 Sudoeste 0 -- -- 83
2020-03-22 00:00:00 8.7 0 Calma 5 Sudoeste 0 -- -- 81
2020-03-21 23:00:00 8.8 3 Sur 9 Sur 0 -- -- 81
2020-03-21 22:00:00 9 5 Sudeste 13 Sudeste 0 -- -- 80
2020-03-21 21:00:00 9.2 5 Sudeste 14 Este 0 -- -- 79
2020-03-21 20:00:00 9.6 6 Sudeste 15 Sudeste 0 -- -- 78
2020-03-21 19:00:00 10.9 6 Sudeste 15 Sudeste 0 -- -- 72
2020-03-21 18:00:00 11.9 10 Este 14 Este 0 -- -- 67
2020-03-21 17:00:00 12.5 6 Este 17 Este 0 -- -- 63
2020-03-21 16:00:00 13.1 3 Este 28 Este 0 -- -- 58
2020-03-21 15:00:00 14.6 11 Este 28 Nordeste 0 -- -- 54
2020-03-21 14:00:00 15.2 9 Este 20 Este 0 -- -- 53
2020-03-21 13:00:00 14.7 7 Este 18 Este 0 -- -- 55
2020-03-21 12:00:00 13.3 4 Sur 16 Sudoeste 0 -- -- 54
2020-03-21 11:00:00 11.3 6 Sur 13 Sur 0 -- -- 58
2020-03-21 10:00:00 9.6 4 Sur 7 Sur 0 -- -- 69
2020-03-21 09:00:00 6.5 0 Calma 4 Este 0 -- -- 77
2020-03-21 08:00:00 4.5 0 Calma 4 Sudoeste 0 -- -- 83
2020-03-21 07:00:00 4.6 3 Oeste 6 Este 0 -- -- 83
2020-03-21 06:00:00 5 2 Este 5 Este 0 -- -- 81
2020-03-21 05:00:00 5.9 0 Calma 11 Sur 0 -- -- 76
2020-03-21 04:00:00 6.5 8 Sudeste 15 Sudeste 0 -- -- 73
2020-03-21 03:00:00 6.4 6 Sur 17 Sur 0 -- -- 75
2020-03-21 02:00:00 6.6 9 Sur 16 Sudeste 0 -- -- 76
2020-03-21 01:00:00 6.7 8 Sudoeste 18 Sudeste 0 -- -- 79
2020-03-21 00:00:00 6.9 9 Sur 14 Sudoeste 0 -- -- 79
2020-03-20 23:00:00 7.2 5 Sur 11 Sudeste 0 -- -- 80
2020-03-20 22:00:00 7.5 6 Este 14 Este 0 -- -- 79
2020-03-20 21:00:00 8 9 Sudeste 21 Este 0 -- -- 77
2020-03-20 20:00:00 8.7 6 Sur 17 Este 0 -- -- 74
2020-03-20 19:00:00 9.9 9 Sudeste 24 Este 0 -- -- 70
2020-03-20 18:00:00 11.4 13 Este 28 Este 0 -- -- 64
2020-03-20 17:00:00 12.5 12 Este 25 Sudeste 0 -- -- 61
2020-03-20 16:00:00 12.3 10 Sudeste 29 Nordeste 0 -- -- 61
2020-03-20 15:00:00 11.5 16 Este 37 Este 0 -- -- 65
2020-03-20 14:00:00 10.3 20 Este 30 Este 0 -- -- 71
2020-03-20 13:00:00 11.5 20 Este 35 Este 0 -- -- 71
2020-03-20 12:00:00 12.9 11 Sudeste 38 Este 0 -- -- 62
2020-03-20 11:00:00 11.9 11 Sudeste 26 Este 0 -- -- 61
2020-03-20 10:00:00 9 8 Sur 16 Sudeste 0 -- -- 71
2020-03-20 09:00:00 5.9 2 Sudeste 6 Sur 0 -- -- 83
2020-03-20 08:00:00 5.1 2 Sur 4 Sudoeste 0 -- -- 84
2020-03-20 07:00:00 4.2 0 Calma 4 Sudeste 0 -- -- 88
2020-03-20 06:00:00 4.3 3 Sudeste 5 Este 0 -- -- 87
2020-03-20 05:00:00 5.2 3 Sur 7 Sur 0 -- -- 84
2020-03-20 04:00:00 5.6 4 Sur 17 Sur 0 -- -- 82
2020-03-20 03:00:00 5.7 6 Sur 22 Sudeste 0 -- -- 82
2020-03-20 02:00:00 6.1 8 Sudeste 12 Sudeste 0 -- -- 81
2020-03-20 01:00:00 6.6 5 Sudeste 18 Sudeste 0 -- -- 79
2020-03-20 00:00:00 6.8 6 Sur 12 Sur 0 -- -- 81
2020-03-19 23:00:00 7.2 8 Sur 19 Sudeste 0 -- -- 79
2020-03-19 22:00:00 7.9 9 Sur 14 Sur 0 -- -- 77
2020-03-19 21:00:00 8.3 4 Sudeste 14 Sudeste 0 -- -- 75
2020-03-19 20:00:00 9.5 7 Sudeste 18 Sudeste 0 -- -- 70
2020-03-19 19:00:00 11 12 Este 24 Este 0 -- -- 63
2020-03-19 18:00:00 12.6 17 Este 28 Este 0 -- -- 53
2020-03-19 17:00:00 14.5 15 Este 24 Este 0 -- -- 48
2020-03-19 16:00:00 15.4 17 Este 26 Este 0 -- -- 38
2020-03-19 15:00:00 16 11 Sudeste 23 Sudeste 0 -- -- 39
2020-03-19 14:00:00 15.5 13 Sudeste 26 Este 0 -- -- 41
2020-03-19 13:00:00 15.4 12 Sur 26 Sur 0 -- -- 39
2020-03-19 12:00:00 14.6 8 Este 17 Este 0 -- -- 49
2020-03-19 11:00:00 12.9 4 Sudoeste 11 Sudoeste 0 -- -- 50
2020-03-19 10:00:00 8.8 0 Calma 8 Este 0 -- -- 66
2020-03-19 09:00:00 5.6 2 Nordeste 4 Este 0 -- -- 84
2020-03-19 08:00:00 4.7 4 Este 6 Este 0 -- -- 84
2020-03-19 07:00:00 4.4 3 Nordeste 6 Este 0 -- -- 88
2020-03-19 06:00:00 4.8 5 Nordeste 6 Nordeste 0 -- -- 86
2020-03-19 05:00:00 5.5 0 Calma 4 Nordeste 0 -- -- 85
2020-03-19 04:00:00 5.6 0 Calma 5 Este 0 -- -- 85
2020-03-19 03:00:00 5.8 3 Nordeste 6 Nordeste 0 -- -- 87
2020-03-19 02:00:00 7 3 Este 5 Este 0 -- -- 85
2020-03-19 01:00:00 7.6 4 Este 7 Este 0 -- -- 83
2020-03-19 00:00:00 8.3 3 Sudeste 6 Sudeste 0 -- -- 79
2020-03-18 23:00:00 8.3 0 Calma 4 Sudoeste 0 -- -- 80
2020-03-18 22:00:00 9.2 2 Sudeste 6 Oeste 0 -- -- 76
2020-03-18 21:00:00 9.8 0 Calma 2 Oeste 0 -- -- 77
2020-03-18 20:00:00 10.5 0 Calma 8 Norte 0 -- -- 82
2020-03-18 19:00:00 11.6 2 Norte 15 Este 0 -- -- 80
2020-03-18 18:00:00 13.1 7 Este 15 Este 0 -- -- 74
2020-03-18 17:00:00 14 4 Nordeste 24 Este 0 -- -- 70
2020-03-18 16:00:00 14.9 6 Nordeste 20 Este 0 -- -- 68
2020-03-18 15:00:00 15.4 4 Sudeste 17 Este 0 -- -- 60
2020-03-18 14:00:00 14.2 3 Nordeste 14 Este 0 -- -- 62
2020-03-18 13:00:00 14.1 3 Este 12 Norte 0 -- -- 66
2020-03-18 12:00:00 12.4 3 Este 9 Noroeste 0 -- -- 71
2020-03-18 11:00:00 9.8 3 Sur 8 Este 0 -- -- 86
2020-03-18 10:00:00 7.9 0 Calma 3 Sur 0 -- -- 86
2020-03-18 09:00:00 6.6 3 Este 5 Este 0 -- -- 90
2020-03-18 08:00:00 5.9 0 Calma 5 Sudeste 0 -- -- 91
2020-03-18 07:00:00 6.8 0 Calma 4 Nordeste 0 -- -- 87
2020-03-18 06:00:00 7 3 Este 4 Este 0 -- -- 87
2020-03-18 05:00:00 7.1 0 Calma 4 Este 0 -- -- 88
2020-03-18 04:00:00 7.3 2 Este 4 Este 0 -- -- 90
2020-03-18 03:00:00 7.6 2 Sudoeste 3 Sur 0 -- -- 88
2020-03-18 02:00:00 8.1 0 Calma 3 Nordeste 0 -- -- 87
2020-03-18 01:00:00 8.5 0 Calma 3 Oeste 0 -- -- 83
2020-03-18 00:00:00 8.8 0 Calma 4 Sur 0 -- -- 84
2020-03-17 23:00:00 8.9 2 Sur 5 Oeste 0 -- -- 86
2020-03-17 22:00:00 9.2 2 Oeste 8 Sudoeste 0 -- -- 85
2020-03-17 21:00:00 9.6 0 Calma 12 Este 0 -- -- 86
2020-03-17 20:00:00 10 5 Este 14 Nordeste 0 -- -- 82
2020-03-17 19:00:00 10.6 6 Nordeste 19 Noroeste 0 -- -- 83
2020-03-17 18:00:00 11 6 Nordeste 28 Este 0 -- -- 85
2020-03-17 17:00:00 11.1 9 Nordeste 31 Este 0 -- -- 85
2020-03-17 16:00:00 11.7 17 Este 28 Este 0 -- -- 81
2020-03-17 15:00:00 12.8 6 Sudeste 22 Este 0 -- -- 86
2020-03-17 14:00:00 11.1 11 Este 28 Nordeste 0 -- -- 95
2020-03-17 13:00:00 10.1 12 Nordeste 25 Este 3.4 -- -- 95
2020-03-17 12:00:00 10.1 5 Nordeste 18 Este 2.6 -- -- 96
2020-03-17 11:00:00 10.2 8 Nordeste 18 Este 2.2 -- -- 96
2020-03-17 10:00:00 9.9 3 Sudeste 21 Nordeste 0.2 -- -- 96
2020-03-17 09:00:00 9.2 10 Norte 23 Norte 3.8 -- -- 96
2020-03-17 08:00:00 9.1 12 Norte 25 Norte 2 -- -- 96
2020-03-17 07:00:00 9.1 7 Norte 21 Nordeste 0.8 -- -- 96
2020-03-17 06:00:00 9.1 11 Nordeste 30 Nordeste 2.4 -- -- 97
2020-03-17 05:00:00 9.1 12 Nordeste 30 Nordeste 2.8 -- -- 97
2020-03-17 04:00:00 8.9 14 Este 30 Nordeste 1.4 -- -- 97
2020-03-17 03:00:00 8.7 10 Este 29 Este 0.4 -- -- 97
2020-03-17 02:00:00 8.3 9 Nordeste 19 Nordeste 2 -- -- 97
2020-03-17 01:00:00 8 9 Este 19 Este 1 -- -- 97
2020-03-17 00:00:00 7.7 7 Norte 21 Norte 0.8 -- -- 96
2020-03-16 23:00:00 7.1 3 Este 10 Sur 0.2 -- -- 96
2020-03-16 22:00:00 6.7 2 Norte 19 Norte 0.8 -- -- 96
2020-03-16 21:00:00 6.8 8 Norte 22 Norte 7.2 -- -- 95
2020-03-16 20:00:00 6.9 6 Sudeste 14 Norte 6.4 -- -- 95
2020-03-16 19:00:00 6.7 3 Sur 14 Noroeste 7.4 -- -- 94
2020-03-16 18:00:00 6.9 3 Nordeste 13 Noroeste 1.6 -- -- 93
2020-03-16 17:00:00 6.9 8 Noroeste 23 Noroeste 1 -- -- 91
2020-03-16 16:00:00 7.3 13 Noroeste 32 Noroeste 1.8 -- -- 91
2020-03-16 15:00:00 8.3 10 Sur 26 Oeste 1.2 -- -- 91
2020-03-16 14:00:00 9.5 5 Sudoeste 16 Sur 0.4 -- -- 89
2020-03-16 13:00:00 8.4 8 Sudoeste 19 Oeste 0.6 -- -- 89
2020-03-16 12:00:00 9.7 9 Sur 27 Sudeste 0 -- -- 78
2020-03-16 11:00:00 10.8 13 Este 28 Sudeste 0 -- -- 74
2020-03-16 10:00:00 8.6 9 Sudeste 33 Sudeste 0 -- -- 79
2020-03-16 09:00:00 8.3 20 Este 34 Este 0 -- -- 81
2020-03-16 08:00:00 8.2 7 Sudeste 17 Sudeste 0 -- -- 88
2020-03-16 07:00:00 8.1 11 Sudeste 23 Sudeste 0 -- -- 87
2020-03-16 06:00:00 8.2 6 Sur 21 Sur 0 -- -- 85
2020-03-16 05:00:00 8.3 15 Sur 28 Sur 0 -- -- 82
2020-03-16 04:00:00 8.5 18 Sur 33 Sur 0 -- -- 77
2020-03-16 03:00:00 8.6 9 Sur 24 Sudeste 0.6 -- -- 76
2020-03-16 02:00:00 9 9 Sudeste 24 Sur 0.6 -- -- 76
2020-03-16 01:00:00 9.6 14 Sur 26 Sur 0 -- -- 80
2020-03-16 00:00:00 9.3 9 Sur 21 Este 0.2 -- -- 88
2020-03-15 23:00:00 10.1 8 Sudeste 26 Sur 1.2 -- -- 87
2020-03-15 22:00:00 11 9 Sur 28 Sur 0.2 -- -- 80
2020-03-15 21:00:00 11.5 13 Sur 23 Sur 0 -- -- 74
2020-03-15 20:00:00 11.7 10 Este 23 Sudeste 0 -- -- 73
2020-03-15 19:00:00 12.8 10 Sudeste 31 Sur 0 -- -- 70
2020-03-15 18:00:00 14.2 15 Sudeste 32 Sudeste 0 -- -- 66
2020-03-15 17:00:00 15.7 15 Este 37 Este 0 -- -- 61
2020-03-15 16:00:00 17.8 14 Este 42 Este 0 -- -- 54
2020-03-15 15:00:00 18.8 17 Este 42 Este 0 -- -- 49
2020-03-15 14:00:00 19.4 14 Este 33 Este 0 -- -- 49
2020-03-15 13:00:00 17.2 10 Este 22 Este 0.4 -- -- 63
2020-03-15 12:00:00 19 10 Este 22 Este 0 -- -- 48
2020-03-15 11:00:00 16.9 4 Sudeste 12 Sur 0 -- -- 48
2020-03-15 10:00:00 14.3 4 Sudeste 12 Sudeste 0 -- -- 55
2020-03-15 09:00:00 11 2 Sudoeste 6 Sudeste 0 -- -- 64
2020-03-15 08:00:00 8 3 Sudeste 7 Sur 0 -- -- 71
2020-03-15 07:00:00 6.8 4 Sudeste 10 Este 0 -- -- 70
2020-03-15 06:00:00 6.8 5 Sudeste 9 Este 0 -- -- 64
2020-03-15 05:00:00 8 0 Calma 10 Este 0 -- -- 59
2020-03-15 04:00:00 7.3 6 Este 9 Este 0 -- -- 56
2020-03-15 03:00:00 7.4 2 Este 7 Este 0 -- -- 53
2020-03-15 02:00:00 8.1 0 Calma 4 Este 0 -- -- 50
2020-03-15 01:00:00 8.6 3 Este 8 Este 0 -- -- 48
2020-03-15 00:00:00 8.8 2 Este 7 Este 0 -- -- 47
2020-03-14 23:00:00 9.4 5 Este 8 Este 0 -- -- 46
2020-03-14 22:00:00 10.4 2 Sur 6 Este 0 -- -- 43
2020-03-14 21:00:00 12 3 Noroeste 6 Sur 0 -- -- 38
2020-03-14 20:00:00 13.1 0 Calma 3 Nordeste 0 -- -- 34
2020-03-14 19:00:00 14.5 0 Calma 18 Este 0 -- -- 33
2020-03-14 18:00:00 16.1 10 Este 22 Este 0 -- -- 30
2020-03-14 17:00:00 17 11 Sudeste 30 Este 0 -- -- 26
2020-03-14 16:00:00 17 12 Este 30 Nordeste 0 -- -- 27
2020-03-14 15:00:00 17.2 17 Este 33 Este 0 -- -- 28
2020-03-14 14:00:00 17.5 10 Este 30 Este 0 -- -- 29
2020-03-14 13:00:00 17 10 Noroeste 22 Oeste 0 -- -- 31
2020-03-14 12:00:00 15.2 7 Este 18 Este 0 -- -- 52
2020-03-14 11:00:00 13.1 7 Nordeste 14 Nordeste 0 -- -- 60
2020-03-14 10:00:00 11.1 3 Sur 8 Este 0 -- -- 68
2020-03-14 09:00:00 8.8 0 Calma 4 Sur 0 -- -- 78
2020-03-14 08:00:00 6.6 0 Calma 6 Norte 0 -- -- 86
2020-03-14 07:00:00 6.3 2 Oeste 5 Noroeste 0 -- -- 86
2020-03-14 06:00:00 7 0 Calma 13 Norte 0 -- -- 83
2020-03-14 05:00:00 7.2 3 Norte 8 Norte 0 -- -- 84
2020-03-14 04:00:00 7.3 0 Calma 4 Oeste 0 -- -- 83
2020-03-14 03:00:00 7.7 0 Calma 8 Oeste 0 -- -- 81
2020-03-14 02:00:00 8.5 5 Oeste 12 Sudoeste 0 -- -- 78
2020-03-14 01:00:00 9.1 2 Nordeste 11 Nordeste 0 -- -- 77
2020-03-14 00:00:00 10 5 Norte 12 Noroeste 0 -- -- 74
2020-03-13 23:00:00 11.3 9 Oeste 20 Oeste 0 -- -- 70
2020-03-13 22:00:00 12.4 4 Oeste 18 Noroeste 0 -- -- 65
2020-03-13 21:00:00 12.4 8 Noroeste 23 Noroeste 0 -- -- 65
2020-03-13 20:00:00 12.5 12 Noroeste 24 Noroeste 0 -- -- 66
2020-03-13 19:00:00 13.3 5 Este 16 Nordeste 0 -- -- 66
2020-03-13 18:00:00 14.3 4 Este 15 Nordeste 0 -- -- 64
2020-03-13 17:00:00 15.4 4 Nordeste 22 Nordeste 0 -- -- 60
2020-03-13 16:00:00 15.6 13 Nordeste 23 Noroeste 0 -- -- 59
2020-03-13 15:00:00 15.9 11 Nordeste 25 Este 0 -- -- 58
2020-03-13 14:00:00 16.9 5 Este 27 Este 0 -- -- 55
2020-03-13 13:00:00 16 6 Norte 15 Este 0 -- -- 59
2020-03-13 12:00:00 12.7 3 Nordeste 11 Norte 0 -- -- 71
2020-03-13 11:00:00 11.7 4 Este 14 Este 0 -- -- 72
2020-03-13 10:00:00 11.2 5 Este 21 Oeste 0 -- -- 73
2020-03-13 09:00:00 10.3 12 Oeste 26 Sudoeste 0 -- -- 75
2020-03-13 08:00:00 9.9 9 Oeste 19 Oeste 0 -- -- 77
2020-03-13 07:00:00 9.5 3 Oeste 13 Sudoeste 0 -- -- 82
2020-03-13 06:00:00 9.7 6 Sudoeste 26 Oeste 0 -- -- 81
2020-03-13 05:00:00 10.1 12 Sudoeste 25 Oeste 0 -- -- 80
2020-03-13 04:00:00 10.3 5 Oeste 14 Oeste 0 -- -- 81
2020-03-13 03:00:00 10.7 0 Calma 14 Oeste 0 -- -- 84
2020-03-13 02:00:00 11 6 Sudoeste 9 Sudoeste 0 -- -- 83
2020-03-13 01:00:00 12 4 Nordeste 18 Nordeste 0 -- -- 81
2020-03-13 00:00:00 13.2 6 Norte 20 Nordeste 0 -- -- 77
2020-03-12 23:00:00 14.9 12 Norte 30 Nordeste 0 -- -- 68
2020-03-12 22:00:00 17.3 2 Nordeste 14 Nordeste 0 -- -- 56
2020-03-12 21:00:00 18.7 4 Oeste 25 Oeste 0 -- -- 52
2020-03-12 20:00:00 19 8 Noroeste 19 Noroeste 0 -- -- 51
2020-03-12 19:00:00 19.9 8 Norte 27 Nordeste 0 -- -- 50
2020-03-12 18:00:00 21.1 13 Norte 24 Norte 0 -- -- 48
2020-03-12 17:00:00 22.6 12 Norte 23 Nordeste 0 -- -- 44
2020-03-12 16:00:00 23.5 11 Norte 23 Nordeste 0 -- -- 44
2020-03-12 15:00:00 24.3 11 Norte 30 Nordeste 0 -- -- 41
2020-03-12 14:00:00 24.5 12 Norte 27 Norte 0 -- -- 41
2020-03-12 13:00:00 27.3 5 Este 14 Este 0 -- -- 33
2020-03-12 12:00:00 25.9 3 Sur 7 Sudeste 0 -- -- 33
2020-03-12 11:00:00 22.8 0 Calma 6 Este 0 -- -- 41
2020-03-12 10:00:00 18 4 Este 10 Este 0 -- -- 49
2020-03-12 09:00:00 14.8 9 Este 12 Este 0 -- -- 54
2020-03-12 08:00:00 12.2 9 Este 14 Este 0 -- -- 60
2020-03-12 07:00:00 12.2 7 Este 10 Este 0 -- -- 58
2020-03-12 06:00:00 12.8 8 Este 13 Este 0 -- -- 56
2020-03-12 05:00:00 12.7 8 Este 12 Este 0 -- -- 56
2020-03-12 04:00:00 13 9 Este 12 Este 0 -- -- 55
2020-03-12 03:00:00 13.7 6 Este 11 Este 0 -- -- 52
2020-03-12 02:00:00 13.5 9 Este 15 Este 0 -- -- 53
2020-03-12 01:00:00 14.8 5 Este 10 Este 0 -- -- 49
2020-03-12 00:00:00 15.3 6 Este 11 Este 0 -- -- 47
2020-03-11 23:00:00 14.8 8 Este 11 Este 0 -- -- 51
2020-03-11 22:00:00 16 3 Sudeste 13 Este 0 -- -- 49
2020-03-11 21:00:00 17.6 5 Sudeste 9 Sudeste 0 -- -- 47
2020-03-11 20:00:00 19.7 5 Este 6 Este 0 -- -- 41
2020-03-11 19:00:00 21.3 0 Calma 10 Noroeste 0 -- -- 37
2020-03-11 18:00:00 23.2 5 Norte 13 Nordeste 0 -- -- 35
2020-03-11 17:00:00 23.1 6 Este 18 Este 0 -- -- 34
2020-03-11 16:00:00 23.2 10 Este 22 Este 0 -- -- 35
2020-03-11 15:00:00 23.3 13 Este 27 Nordeste 0 -- -- 34
2020-03-11 14:00:00 22.9 10 Este 23 Este 0 -- -- 35
2020-03-11 13:00:00 23 12 Este 27 Sudoeste 0 -- -- 33
2020-03-11 12:00:00 21.7 9 Noroeste 23 Oeste 0 -- -- 26
2020-03-11 11:00:00 18.2 6 Este 14 Este 0 -- -- 45
2020-03-11 10:00:00 14.9 5 Este 11 Este 0 -- -- 55
2020-03-11 09:00:00 12.8 5 Este 9 Este 0 -- -- 61
2020-03-11 08:00:00 10.5 6 Este 9 Este 0 -- -- 66
2020-03-11 07:00:00 9.4 3 Este 7 Este 0 -- -- 69
2020-03-11 06:00:00 10.8 2 Nordeste 3 Este 0 -- -- 63
2020-03-11 05:00:00 11 0 Calma 5 Sur 0 -- -- 62
2020-03-11 04:00:00 10.6 2 Noroeste 6 Sur 0 -- -- 63
2020-03-11 03:00:00 12.2 0 Calma 9 Oeste 0 -- -- 57
2020-03-11 02:00:00 13.2 2 Noroeste 5 Este 0 -- -- 53
2020-03-11 01:00:00 13.8 0 Calma 5 Este 0 -- -- 51
2020-03-11 00:00:00 14.2 3 Oeste 10 Oeste 0 -- -- 50